sensor_id;sensor_type;location;lat;lon;timestamp;P1;durP1;ratioP1;P2;durP2;ratioP2
70008;SDS011;59542;37.950;-122.338;2023-06-22T00:00:53;13.50;;;3.53;;
70008;SDS011;59542;37.950;-122.338;2023-06-22T00:03:20;13.30;;;3.58;;
70008;SDS011;59542;37.950;-122.338;2023-06-22T00:05:48;13.70;;;3.80;;
70008;SDS011;59542;37.950;-122.338;2023-06-22T00:08:14;10.57;;;3.63;;
70008;SDS011;59542;37.950;-122.338;2023-06-22T00:10:41;11.23;;;3.78;;
70008;SDS011;59542;37.950;-122.338;2023-06-22T00:13:08;12.32;;;3.83;;
70008;SDS011;59542;37.950;-122.338;2023-06-22T00:15:35;12.80;;;3.83;;
70008;SDS011;59542;37.950;-122.338;2023-06-22T00:18:04;13.55;;;3.63;;
70008;SDS011;59542;37.950;-122.338;2023-06-22T00:20:32;11.48;;;3.63;;
70008;SDS011;59542;37.950;-122.338;2023-06-22T00:23:02;13.50;;;3.88;;
70008;SDS011;59542;37.950;-122.338;2023-06-22T00:25:34;12.02;;;4.25;;
70008;SDS011;59542;37.950;-122.338;2023-06-22T00:28:01;13.15;;;4.18;;
70008;SDS011;59542;37.950;-122.338;2023-06-22T00:30:29;15.45;;;3.72;;
70008;SDS011;59542;37.950;-122.338;2023-06-22T00:32:56;12.43;;;3.33;;
70008;SDS011;59542;37.950;-122.338;2023-06-22T00:35:24;11.13;;;3.78;;
70008;SDS011;59542;37.950;-122.338;2023-06-22T00:37:58;11.05;;;3.30;;
70008;SDS011;59542;37.950;-122.338;2023-06-22T00:40:26;12.90;;;3.40;;
70008;SDS011;59542;37.950;-122.338;2023-06-22T00:42:56;11.07;;;3.88;;
70008;SDS011;59542;37.950;-122.338;2023-06-22T00:45:23;12.07;;;3.63;;
70008;SDS011;59542;37.950;-122.338;2023-06-22T00:47:53;14.25;;;3.92;;
70008;SDS011;59542;37.950;-122.338;2023-06-22T00:50:21;10.63;;;3.13;;
70008;SDS011;59542;37.950;-122.338;2023-06-22T00:52:51;12.88;;;3.85;;
70008;SDS011;59542;37.950;-122.338;2023-06-22T00:55:19;12.45;;;3.75;;
70008;SDS011;59542;37.950;-122.338;2023-06-22T00:57:47;11.43;;;3.53;;
70008;SDS011;59542;37.950;-122.338;2023-06-22T01:00:14;9.82;;;3.67;;
70008;SDS011;59542;37.950;-122.338;2023-06-22T01:02:45;13.13;;;4.05;;
70008;SDS011;59542;37.950;-122.338;2023-06-22T01:05:13;9.60;;;3.72;;
70008;SDS011;59542;37.950;-122.338;2023-06-22T01:07:42;18.17;;;4.10;;
70008;SDS011;59542;37.950;-122.338;2023-06-22T01:10:36;10.48;;;3.88;;
70008;SDS011;59542;37.950;-122.338;2023-06-22T01:13:41;15.38;;;4.38;;
70008;SDS011;59542;37.950;-122.338;2023-06-22T01:16:28;14.35;;;4.05;;
70008;SDS011;59542;37.950;-122.338;2023-06-22T01:19:01;13.45;;;4.40;;
70008;SDS011;59542;37.950;-122.338;2023-06-22T01:21:51;9.98;;;3.22;;
70008;SDS011;59542;37.950;-122.338;2023-06-22T01:29:19;16.48;;;4.47;;
70008;SDS011;59542;37.950;-122.338;2023-06-22T01:31:48;11.90;;;4.20;;
70008;SDS011;59542;37.950;-122.338;2023-06-22T01:34:16;12.00;;;3.67;;
70008;SDS011;59542;37.950;-122.338;2023-06-22T01:36:44;10.68;;;3.45;;
70008;SDS011;59542;37.950;-122.338;2023-06-22T01:39:11;16.35;;;4.03;;
70008;SDS011;59542;37.950;-122.338;2023-06-22T01:41:39;13.35;;;3.92;;
70008;SDS011;59542;37.950;-122.338;2023-06-22T01:44:08;10.23;;;4.03;;
70008;SDS011;59542;37.950;-122.338;2023-06-22T01:46:36;9.98;;;4.07;;
70008;SDS011;59542;37.950;-122.338;2023-06-22T01:49:04;10.32;;;3.50;;
70008;SDS011;59542;37.950;-122.338;2023-06-22T01:51:31;9.27;;;3.83;;
70008;SDS011;59542;37.950;-122.338;2023-06-22T01:53:57;14.18;;;4.07;;
70008;SDS011;59542;37.950;-122.338;2023-06-22T01:56:24;13.20;;;3.55;;
70008;SDS011;59542;37.950;-122.338;2023-06-22T02:01:28;9.18;;;3.65;;
70008;SDS011;59542;37.950;-122.338;2023-06-22T02:04:06;12.60;;;3.55;;
70008;SDS011;59542;37.950;-122.338;2023-06-22T02:06:39;6.75;;;3.22;;
70008;SDS011;59542;37.950;-122.338;2023-06-22T02:09:12;12.48;;;3.90;;
70008;SDS011;59542;37.950;-122.338;2023-06-22T02:11:43;8.38;;;3.47;;
70008;SDS011;59542;37.950;-122.338;2023-06-22T02:14:11;10.70;;;3.45;;
70008;SDS011;59542;37.950;-122.338;2023-06-22T02:16:38;8.35;;;3.55;;
70008;SDS011;59542;37.950;-122.338;2023-06-22T02:19:06;11.77;;;3.42;;
70008;SDS011;59542;37.950;-122.338;2023-06-22T02:21:32;12.40;;;3.85;;
70008;SDS011;59542;37.950;-122.338;2023-06-22T02:23:58;13.68;;;4.20;;
70008;SDS011;59542;37.950;-122.338;2023-06-22T02:26:25;9.98;;;3.20;;
70008;SDS011;59542;37.950;-122.338;2023-06-22T02:28:52;8.00;;;2.97;;
70008;SDS011;59542;37.950;-122.338;2023-06-22T02:31:18;9.05;;;3.10;;
70008;SDS011;59542;37.950;-122.338;2023-06-22T02:33:45;11.52;;;3.35;;
70008;SDS011;59542;37.950;-122.338;2023-06-22T02:36:13;9.85;;;3.13;;
70008;SDS011;59542;37.950;-122.338;2023-06-22T02:38:43;10.85;;;3.65;;
70008;SDS011;59542;37.950;-122.338;2023-06-22T02:41:14;10.45;;;3.70;;
70008;SDS011;59542;37.950;-122.338;2023-06-22T02:43:46;8.50;;;3.47;;
70008;SDS011;59542;37.950;-122.338;2023-06-22T02:46:13;10.40;;;3.38;;
70008;SDS011;59542;37.950;-122.338;2023-06-22T02:48:40;11.32;;;3.75;;
70008;SDS011;59542;37.950;-122.338;2023-06-22T02:51:06;15.23;;;4.35;;
70008;SDS011;59542;37.950;-122.338;2023-06-22T02:53:33;11.85;;;3.70;;
70008;SDS011;59542;37.950;-122.338;2023-06-22T02:56:01;7.72;;;3.70;;
70008;SDS011;59542;37.950;-122.338;2023-06-22T02:58:31;12.00;;;3.80;;
70008;SDS011;59542;37.950;-122.338;2023-06-22T03:01:06;10.77;;;3.65;;
70008;SDS011;59542;37.950;-122.338;2023-06-22T03:03:32;10.77;;;3.65;;
70008;SDS011;59542;37.950;-122.338;2023-06-22T03:05:59;9.38;;;3.53;;
70008;SDS011;59542;37.950;-122.338;2023-06-22T03:08:26;10.93;;;4.07;;
70008;SDS011;59542;37.950;-122.338;2023-06-22T03:10:52;13.80;;;4.65;;
70008;SDS011;59542;37.950;-122.338;2023-06-22T03:13:19;13.52;;;4.15;;
70008;SDS011;59542;37.950;-122.338;2023-06-22T03:15:45;11.50;;;4.22;;
70008;SDS011;59542;37.950;-122.338;2023-06-22T03:18:11;12.52;;;4.60;;
70008;SDS011;59542;37.950;-122.338;2023-06-22T03:20:37;13.40;;;4.45;;
70008;SDS011;59542;37.950;-122.338;2023-06-22T03:23:03;13.45;;;4.32;;
70008;SDS011;59542;37.950;-122.338;2023-06-22T03:25:30;10.15;;;4.45;;
70008;SDS011;59542;37.950;-122.338;2023-06-22T03:27:56;11.52;;;5.70;;
70008;SDS011;59542;37.950;-122.338;2023-06-22T03:30:22;13.90;;;4.82;;
70008;SDS011;59542;37.950;-122.338;2023-06-22T03:32:49;12.63;;;4.85;;
70008;SDS011;59542;37.950;-122.338;2023-06-22T03:35:15;14.23;;;4.47;;
70008;SDS011;59542;37.950;-122.338;2023-06-22T03:37:41;16.23;;;5.47;;
70008;SDS011;59542;37.950;-122.338;2023-06-22T03:40:08;20.83;;;5.65;;
70008;SDS011;59542;37.950;-122.338;2023-06-22T03:42:34;14.50;;;5.05;;
70008;SDS011;59542;37.950;-122.338;2023-06-22T03:45:01;10.75;;;5.35;;
70008;SDS011;59542;37.950;-122.338;2023-06-22T03:47:28;11.95;;;5.30;;
70008;SDS011;59542;37.950;-122.338;2023-06-22T03:49:55;16.15;;;6.50;;
70008;SDS011;59542;37.950;-122.338;2023-06-22T03:52:21;15.80;;;5.72;;
70008;SDS011;59542;37.950;-122.338;2023-06-22T03:54:48;16.95;;;5.50;;
70008;SDS011;59542;37.950;-122.338;2023-06-22T03:57:14;11.15;;;5.15;;
70008;SDS011;59542;37.950;-122.338;2023-06-22T03:59:40;15.52;;;5.13;;
70008;SDS011;59542;37.950;-122.338;2023-06-22T04:02:06;11.45;;;5.35;;
70008;SDS011;59542;37.950;-122.338;2023-06-22T04:04:33;10.02;;;4.60;;
70008;SDS011;59542;37.950;-122.338;2023-06-22T04:07:00;13.07;;;4.65;;
70008;SDS011;59542;37.950;-122.338;2023-06-22T04:09:26;15.35;;;4.88;;
70008;SDS011;59542;37.950;-122.338;2023-06-22T04:11:53;11.23;;;4.70;;
70008;SDS011;59542;37.950;-122.338;2023-06-22T04:14:19;8.98;;;4.97;;
70008;SDS011;59542;37.950;-122.338;2023-06-22T04:16:45;15.52;;;4.95;;
70008;SDS011;59542;37.950;-122.338;2023-06-22T04:19:11;14.50;;;4.97;;
70008;SDS011;59542;37.950;-122.338;2023-06-22T04:21:42;12.25;;;4.53;;
70008;SDS011;59542;37.950;-122.338;2023-06-22T04:24:10;12.48;;;4.68;;
70008;SDS011;59542;37.950;-122.338;2023-06-22T04:26:36;17.02;;;5.43;;
70008;SDS011;59542;37.950;-122.338;2023-06-22T04:29:03;14.45;;;5.40;;
70008;SDS011;59542;37.950;-122.338;2023-06-22T04:31:36;10.35;;;4.40;;
70008;SDS011;59542;37.950;-122.338;2023-06-22T04:34:03;12.82;;;4.55;;
70008;SDS011;59542;37.950;-122.338;2023-06-22T04:36:38;10.63;;;4.72;;
70008;SDS011;59542;37.950;-122.338;2023-06-22T04:39:09;13.15;;;4.78;;
70008;SDS011;59542;37.950;-122.338;2023-06-22T04:41:36;13.13;;;5.15;;
70008;SDS011;59542;37.950;-122.338;2023-06-22T04:44:13;11.10;;;4.72;;
70008;SDS011;59542;37.950;-122.338;2023-06-22T04:47:00;15.20;;;5.68;;
70008;SDS011;59542;37.950;-122.338;2023-06-22T04:49:29;9.90;;;4.32;;
70008;SDS011;59542;37.950;-122.338;2023-06-22T04:52:04;12.77;;;4.68;;
70008;SDS011;59542;37.950;-122.338;2023-06-22T04:54:35;13.98;;;4.78;;
70008;SDS011;59542;37.950;-122.338;2023-06-22T04:57:03;15.55;;;4.78;;
70008;SDS011;59542;37.950;-122.338;2023-06-22T04:59:35;13.25;;;4.88;;
70008;SDS011;59542;37.950;-122.338;2023-06-22T05:02:04;7.68;;;3.88;;
70008;SDS011;59542;37.950;-122.338;2023-06-22T05:04:31;13.85;;;4.65;;
70008;SDS011;59542;37.950;-122.338;2023-06-22T05:07:01;18.10;;;5.10;;
70008;SDS011;59542;37.950;-122.338;2023-06-22T05:09:28;12.15;;;4.55;;
70008;SDS011;59542;37.950;-122.338;2023-06-22T05:11:55;10.68;;;4.47;;
70008;SDS011;59542;37.950;-122.338;2023-06-22T05:14:22;16.20;;;4.35;;
70008;SDS011;59542;37.950;-122.338;2023-06-22T05:16:48;9.85;;;4.05;;
70008;SDS011;59542;37.950;-122.338;2023-06-22T05:19:17;12.48;;;4.05;;
70008;SDS011;59542;37.950;-122.338;2023-06-22T05:21:43;15.82;;;4.03;;
70008;SDS011;59542;37.950;-122.338;2023-06-22T05:24:10;15.88;;;5.13;;
70008;SDS011;59542;37.950;-122.338;2023-06-22T05:26:36;14.00;;;4.68;;
70008;SDS011;59542;37.950;-122.338;2023-06-22T05:29:02;9.35;;;4.07;;
70008;SDS011;59542;37.950;-122.338;2023-06-22T05:31:29;8.70;;;3.92;;
70008;SDS011;59542;37.950;-122.338;2023-06-22T05:33:55;11.73;;;4.35;;
70008;SDS011;59542;37.950;-122.338;2023-06-22T05:36:22;19.60;;;5.18;;
70008;SDS011;59542;37.950;-122.338;2023-06-22T05:38:51;14.65;;;4.50;;
70008;SDS011;59542;37.950;-122.338;2023-06-22T05:41:18;16.58;;;4.72;;
70008;SDS011;59542;37.950;-122.338;2023-06-22T05:43:44;15.68;;;4.47;;
70008;SDS011;59542;37.950;-122.338;2023-06-22T05:46:11;10.13;;;4.90;;
70008;SDS011;59542;37.950;-122.338;2023-06-22T05:48:37;11.73;;;4.68;;
70008;SDS011;59542;37.950;-122.338;2023-06-22T05:51:03;9.82;;;4.43;;
70008;SDS011;59542;37.950;-122.338;2023-06-22T05:53:29;11.13;;;5.15;;
70008;SDS011;59542;37.950;-122.338;2023-06-22T05:55:56;12.27;;;4.22;;
70008;SDS011;59542;37.950;-122.338;2023-06-22T05:58:22;9.98;;;4.63;;
70008;SDS011;59542;37.950;-122.338;2023-06-22T06:00:48;12.95;;;4.60;;
70008;SDS011;59542;37.950;-122.338;2023-06-22T06:03:14;14.90;;;4.80;;
70008;SDS011;59542;37.950;-122.338;2023-06-22T06:05:42;13.77;;;4.60;;
70008;SDS011;59542;37.950;-122.338;2023-06-22T06:08:09;14.50;;;5.38;;
70008;SDS011;59542;37.950;-122.338;2023-06-22T06:10:36;14.57;;;4.78;;
70008;SDS011;59542;37.950;-122.338;2023-06-22T06:13:02;13.82;;;5.22;;
70008;SDS011;59542;37.950;-122.338;2023-06-22T06:15:30;14.40;;;5.38;;
70008;SDS011;59542;37.950;-122.338;2023-06-22T06:17:57;15.27;;;5.10;;
70008;SDS011;59542;37.950;-122.338;2023-06-22T06:20:24;13.68;;;4.63;;
70008;SDS011;59542;37.950;-122.338;2023-06-22T06:22:51;12.48;;;4.93;;
70008;SDS011;59542;37.950;-122.338;2023-06-22T06:25:17;16.80;;;4.70;;
70008;SDS011;59542;37.950;-122.338;2023-06-22T06:27:46;11.82;;;4.85;;
70008;SDS011;59542;37.950;-122.338;2023-06-22T06:30:13;17.75;;;5.18;;
70008;SDS011;59542;37.950;-122.338;2023-06-22T06:32:41;12.10;;;4.28;;
70008;SDS011;59542;37.950;-122.338;2023-06-22T06:35:11;16.55;;;5.22;;
70008;SDS011;59542;37.950;-122.338;2023-06-22T06:37:39;10.00;;;4.43;;
70008;SDS011;59542;37.950;-122.338;2023-06-22T06:40:07;12.98;;;4.97;;
70008;SDS011;59542;37.950;-122.338;2023-06-22T06:42:42;14.38;;;4.53;;
70008;SDS011;59542;37.950;-122.338;2023-06-22T06:45:11;15.85;;;5.15;;
70008;SDS011;59542;37.950;-122.338;2023-06-22T06:47:40;17.35;;;4.65;;
70008;SDS011;59542;37.950;-122.338;2023-06-22T06:50:07;16.02;;;4.82;;
70008;SDS011;59542;37.950;-122.338;2023-06-22T06:52:34;11.02;;;4.78;;
70008;SDS011;59542;37.950;-122.338;2023-06-22T06:55:01;13.43;;;4.32;;
70008;SDS011;59542;37.950;-122.338;2023-06-22T06:57:29;11.40;;;4.57;;
70008;SDS011;59542;37.950;-122.338;2023-06-22T06:59:56;13.18;;;5.00;;
70008;SDS011;59542;37.950;-122.338;2023-06-22T07:02:23;11.82;;;4.95;;
70008;SDS011;59542;37.950;-122.338;2023-06-22T07:04:53;10.35;;;4.10;;
70008;SDS011;59542;37.950;-122.338;2023-06-22T07:07:22;13.13;;;4.57;;
70008;SDS011;59542;37.950;-122.338;2023-06-22T07:09:49;11.85;;;4.30;;
70008;SDS011;59542;37.950;-122.338;2023-06-22T07:12:15;13.93;;;4.63;;
70008;SDS011;59542;37.950;-122.338;2023-06-22T07:14:41;14.38;;;4.20;;
70008;SDS011;59542;37.950;-122.338;2023-06-22T07:17:08;11.35;;;4.63;;
70008;SDS011;59542;37.950;-122.338;2023-06-22T07:19:34;8.32;;;4.20;;
70008;SDS011;59542;37.950;-122.338;2023-06-22T07:22:00;10.90;;;4.28;;
70008;SDS011;59542;37.950;-122.338;2023-06-22T07:24:26;14.00;;;4.65;;
70008;SDS011;59542;37.950;-122.338;2023-06-22T07:26:53;8.68;;;4.07;;
70008;SDS011;59542;37.950;-122.338;2023-06-22T07:29:19;10.40;;;4.35;;
70008;SDS011;59542;37.950;-122.338;2023-06-22T07:31:46;11.30;;;5.13;;
70008;SDS011;59542;37.950;-122.338;2023-06-22T07:34:14;14.30;;;4.75;;
70008;SDS011;59542;37.950;-122.338;2023-06-22T07:36:41;10.63;;;4.60;;
70008;SDS011;59542;37.950;-122.338;2023-06-22T07:39:07;10.50;;;4.40;;
70008;SDS011;59542;37.950;-122.338;2023-06-22T07:41:33;12.60;;;4.60;;
70008;SDS011;59542;37.950;-122.338;2023-06-22T07:43:59;17.35;;;4.78;;
70008;SDS011;59542;37.950;-122.338;2023-06-22T07:46:26;14.88;;;5.20;;
70008;SDS011;59542;37.950;-122.338;2023-06-22T07:48:52;8.50;;;3.85;;
70008;SDS011;59542;37.950;-122.338;2023-06-22T07:51:18;14.25;;;4.28;;
70008;SDS011;59542;37.950;-122.338;2023-06-22T07:53:44;9.65;;;4.30;;
70008;SDS011;59542;37.950;-122.338;2023-06-22T07:56:11;10.07;;;4.35;;
70008;SDS011;59542;37.950;-122.338;2023-06-22T07:58:37;10.10;;;4.55;;
70008;SDS011;59542;37.950;-122.338;2023-06-22T08:01:03;21.27;;;4.78;;
70008;SDS011;59542;37.950;-122.338;2023-06-22T08:03:31;12.50;;;4.72;;
70008;SDS011;59542;37.950;-122.338;2023-06-22T08:05:58;9.43;;;3.70;;
70008;SDS011;59542;37.950;-122.338;2023-06-22T08:08:24;10.00;;;3.85;;
70008;SDS011;59542;37.950;-122.338;2023-06-22T08:10:50;11.25;;;4.00;;
70008;SDS011;59542;37.950;-122.338;2023-06-22T08:13:16;16.38;;;5.38;;
70008;SDS011;59542;37.950;-122.338;2023-06-22T08:15:43;7.85;;;4.00;;
70008;SDS011;59542;37.950;-122.338;2023-06-22T08:18:09;9.18;;;4.30;;
70008;SDS011;59542;37.950;-122.338;2023-06-22T08:20:35;9.93;;;4.28;;
70008;SDS011;59542;37.950;-122.338;2023-06-22T08:23:01;11.77;;;4.25;;
70008;SDS011;59542;37.950;-122.338;2023-06-22T08:25:32;8.82;;;4.15;;
70008;SDS011;59542;37.950;-122.338;2023-06-22T08:27:59;12.80;;;4.63;;
70008;SDS011;59542;37.950;-122.338;2023-06-22T08:30:26;13.68;;;4.57;;
70008;SDS011;59542;37.950;-122.338;2023-06-22T08:32:53;6.95;;;3.83;;
70008;SDS011;59542;37.950;-122.338;2023-06-22T08:35:21;10.65;;;3.78;;
70008;SDS011;59542;37.950;-122.338;2023-06-22T08:37:48;10.98;;;4.57;;
70008;SDS011;59542;37.950;-122.338;2023-06-22T08:40:20;14.50;;;3.95;;
70008;SDS011;59542;37.950;-122.338;2023-06-22T08:42:48;14.20;;;4.10;;
70008;SDS011;59542;37.950;-122.338;2023-06-22T08:45:14;11.10;;;3.85;;
70008;SDS011;59542;37.950;-122.338;2023-06-22T08:47:41;12.73;;;4.35;;
70008;SDS011;59542;37.950;-122.338;2023-06-22T08:50:08;9.35;;;3.40;;
70008;SDS011;59542;37.950;-122.338;2023-06-22T08:52:35;10.60;;;4.13;;
70008;SDS011;59542;37.950;-122.338;2023-06-22T08:55:02;18.02;;;4.13;;
70008;SDS011;59542;37.950;-122.338;2023-06-22T08:57:29;9.35;;;3.92;;
70008;SDS011;59542;37.950;-122.338;2023-06-22T08:59:56;12.52;;;4.20;;
70008;SDS011;59542;37.950;-122.338;2023-06-22T09:02:24;9.07;;;3.53;;
70008;SDS011;59542;37.950;-122.338;2023-06-22T09:04:51;13.45;;;4.03;;
70008;SDS011;59542;37.950;-122.338;2023-06-22T09:07:21;11.90;;;4.43;;
70008;SDS011;59542;37.950;-122.338;2023-06-22T09:09:49;10.85;;;4.82;;
70008;SDS011;59542;37.950;-122.338;2023-06-22T09:12:16;11.38;;;4.28;;
70008;SDS011;59542;37.950;-122.338;2023-06-22T09:14:45;9.77;;;4.00;;
70008;SDS011;59542;37.950;-122.338;2023-06-22T09:17:12;11.30;;;4.07;;
70008;SDS011;59542;37.950;-122.338;2023-06-22T09:19:39;9.15;;;3.97;;
70008;SDS011;59542;37.950;-122.338;2023-06-22T09:22:05;9.77;;;4.20;;
70008;SDS011;59542;37.950;-122.338;2023-06-22T09:24:32;9.65;;;3.70;;
70008;SDS011;59542;37.950;-122.338;2023-06-22T09:26:58;7.18;;;4.10;;
70008;SDS011;59542;37.950;-122.338;2023-06-22T09:29:25;6.97;;;3.78;;
70008;SDS011;59542;37.950;-122.338;2023-06-22T09:31:51;11.30;;;4.30;;
70008;SDS011;59542;37.950;-122.338;2023-06-22T09:34:21;10.65;;;3.92;;
70008;SDS011;59542;37.950;-122.338;2023-06-22T09:36:47;12.00;;;3.97;;
70008;SDS011;59542;37.950;-122.338;2023-06-22T09:39:13;8.38;;;3.70;;
70008;SDS011;59542;37.950;-122.338;2023-06-22T09:41:40;11.43;;;4.18;;
70008;SDS011;59542;37.950;-122.338;2023-06-22T09:44:06;11.07;;;4.18;;
70008;SDS011;59542;37.950;-122.338;2023-06-22T09:46:32;11.43;;;3.75;;
70008;SDS011;59542;37.950;-122.338;2023-06-22T09:48:58;8.63;;;3.78;;
70008;SDS011;59542;37.950;-122.338;2023-06-22T09:51:24;10.20;;;3.63;;
70008;SDS011;59542;37.950;-122.338;2023-06-22T09:53:51;10.68;;;4.80;;
70008;SDS011;59542;37.950;-122.338;2023-06-22T09:56:19;9.90;;;3.75;;
70008;SDS011;59542;37.950;-122.338;2023-06-22T09:58:46;8.30;;;3.60;;
70008;SDS011;59542;37.950;-122.338;2023-06-22T10:01:13;7.38;;;3.50;;
70008;SDS011;59542;37.950;-122.338;2023-06-22T10:03:42;16.17;;;4.15;;
70008;SDS011;59542;37.950;-122.338;2023-06-22T10:06:08;13.48;;;4.40;;
70008;SDS011;59542;37.950;-122.338;2023-06-22T10:08:35;12.32;;;4.53;;
70008;SDS011;59542;37.950;-122.338;2023-06-22T10:11:02;8.27;;;3.80;;
70008;SDS011;59542;37.950;-122.338;2023-06-22T10:13:29;9.00;;;4.18;;
70008;SDS011;59542;37.950;-122.338;2023-06-22T10:15:55;8.57;;;4.07;;
70008;SDS011;59542;37.950;-122.338;2023-06-22T10:18:21;6.45;;;3.72;;
70008;SDS011;59542;37.950;-122.338;2023-06-22T10:20:48;7.15;;;3.90;;
70008;SDS011;59542;37.950;-122.338;2023-06-22T10:23:17;9.07;;;3.83;;
70008;SDS011;59542;37.950;-122.338;2023-06-22T10:25:43;12.25;;;3.95;;
70008;SDS011;59542;37.950;-122.338;2023-06-22T10:28:10;7.18;;;4.03;;
70008;SDS011;59542;37.950;-122.338;2023-06-22T10:30:38;12.50;;;4.85;;
70008;SDS011;59542;37.950;-122.338;2023-06-22T10:33:09;9.23;;;4.03;;
70008;SDS011;59542;37.950;-122.338;2023-06-22T10:35:37;6.35;;;3.80;;
70008;SDS011;59542;37.950;-122.338;2023-06-22T10:38:03;9.20;;;3.78;;
70008;SDS011;59542;37.950;-122.338;2023-06-22T10:40:30;9.13;;;3.90;;
70008;SDS011;59542;37.950;-122.338;2023-06-22T10:42:56;10.80;;;4.13;;
70008;SDS011;59542;37.950;-122.338;2023-06-22T10:45:23;8.93;;;3.67;;
70008;SDS011;59542;37.950;-122.338;2023-06-22T10:47:49;9.23;;;3.85;;
70008;SDS011;59542;37.950;-122.338;2023-06-22T10:50:15;10.13;;;3.90;;
70008;SDS011;59542;37.950;-122.338;2023-06-22T10:52:41;11.98;;;4.22;;
70008;SDS011;59542;37.950;-122.338;2023-06-22T10:55:08;11.13;;;4.00;;
70008;SDS011;59542;37.950;-122.338;2023-06-22T10:57:35;9.73;;;3.95;;
70008;SDS011;59542;37.950;-122.338;2023-06-22T11:00:08;9.77;;;4.15;;
70008;SDS011;59542;37.950;-122.338;2023-06-22T11:02:36;12.50;;;4.35;;
70008;SDS011;59542;37.950;-122.338;2023-06-22T11:05:02;9.30;;;3.83;;
70008;SDS011;59542;37.950;-122.338;2023-06-22T11:07:29;9.07;;;4.13;;
70008;SDS011;59542;37.950;-122.338;2023-06-22T11:09:55;12.18;;;3.70;;
70008;SDS011;59542;37.950;-122.338;2023-06-22T11:12:22;11.82;;;3.75;;
70008;SDS011;59542;37.950;-122.338;2023-06-22T11:14:48;10.25;;;3.97;;
70008;SDS011;59542;37.950;-122.338;2023-06-22T11:17:17;5.28;;;3.60;;
70008;SDS011;59542;37.950;-122.338;2023-06-22T11:19:44;8.48;;;4.15;;
70008;SDS011;59542;37.950;-122.338;2023-06-22T11:22:10;9.10;;;3.92;;
70008;SDS011;59542;37.950;-122.338;2023-06-22T11:24:37;9.52;;;4.10;;
70008;SDS011;59542;37.950;-122.338;2023-06-22T11:27:03;14.60;;;4.15;;
70008;SDS011;59542;37.950;-122.338;2023-06-22T11:29:29;10.68;;;4.28;;
70008;SDS011;59542;37.950;-122.338;2023-06-22T11:31:56;11.27;;;3.92;;
70008;SDS011;59542;37.950;-122.338;2023-06-22T11:34:22;9.05;;;4.47;;
70008;SDS011;59542;37.950;-122.338;2023-06-22T11:36:48;9.80;;;3.80;;
70008;SDS011;59542;37.950;-122.338;2023-06-22T11:39:14;11.10;;;4.65;;
70008;SDS011;59542;37.950;-122.338;2023-06-22T11:41:41;9.80;;;4.07;;
70008;SDS011;59542;37.950;-122.338;2023-06-22T11:44:08;8.98;;;4.15;;
70008;SDS011;59542;37.950;-122.338;2023-06-22T11:46:34;9.85;;;4.32;;
70008;SDS011;59542;37.950;-122.338;2023-06-22T11:49:01;9.75;;;3.70;;
70008;SDS011;59542;37.950;-122.338;2023-06-22T11:51:27;9.45;;;3.85;;
70008;SDS011;59542;37.950;-122.338;2023-06-22T11:53:56;12.55;;;4.97;;
70008;SDS011;59542;37.950;-122.338;2023-06-22T11:56:24;9.30;;;4.05;;
70008;SDS011;59542;37.950;-122.338;2023-06-22T11:58:50;12.85;;;4.70;;
70008;SDS011;59542;37.950;-122.338;2023-06-22T12:01:16;12.15;;;4.47;;
70008;SDS011;59542;37.950;-122.338;2023-06-22T12:03:42;7.75;;;4.15;;
70008;SDS011;59542;37.950;-122.338;2023-06-22T12:06:09;7.90;;;4.00;;
70008;SDS011;59542;37.950;-122.338;2023-06-22T12:08:35;9.52;;;4.35;;
70008;SDS011;59542;37.950;-122.338;2023-06-22T12:11:02;13.13;;;4.50;;
70008;SDS011;59542;37.950;-122.338;2023-06-22T12:13:29;11.63;;;4.20;;
70008;SDS011;59542;37.950;-122.338;2023-06-22T12:15:55;11.82;;;4.30;;
70008;SDS011;59542;37.950;-122.338;2023-06-22T12:18:21;12.07;;;4.68;;
70008;SDS011;59542;37.950;-122.338;2023-06-22T12:20:47;12.57;;;4.43;;
70008;SDS011;59542;37.950;-122.338;2023-06-22T12:23:14;11.73;;;4.60;;
70008;SDS011;59542;37.950;-122.338;2023-06-22T12:25:40;8.45;;;4.57;;
70008;SDS011;59542;37.950;-122.338;2023-06-22T12:28:07;11.95;;;4.93;;
70008;SDS011;59542;37.950;-122.338;2023-06-22T12:30:33;10.25;;;4.32;;
70008;SDS011;59542;37.950;-122.338;2023-06-22T12:32:59;9.15;;;4.32;;
70008;SDS011;59542;37.950;-122.338;2023-06-22T12:35:26;12.25;;;4.43;;
70008;SDS011;59542;37.950;-122.338;2023-06-22T12:37:52;12.25;;;4.57;;
70008;SDS011;59542;37.950;-122.338;2023-06-22T12:40:18;5.82;;;3.60;;
70008;SDS011;59542;37.950;-122.338;2023-06-22T12:42:45;12.68;;;5.15;;
70008;SDS011;59542;37.950;-122.338;2023-06-22T12:45:11;13.20;;;4.28;;
70008;SDS011;59542;37.950;-122.338;2023-06-22T12:47:37;10.52;;;3.95;;
70008;SDS011;59542;37.950;-122.338;2023-06-22T12:50:04;8.43;;;4.13;;
70008;SDS011;59542;37.950;-122.338;2023-06-22T12:52:31;9.25;;;3.88;;
70008;SDS011;59542;37.950;-122.338;2023-06-22T12:54:57;10.10;;;4.13;;
70008;SDS011;59542;37.950;-122.338;2023-06-22T12:57:23;7.45;;;3.88;;
70008;SDS011;59542;37.950;-122.338;2023-06-22T12:59:50;10.70;;;4.40;;
70008;SDS011;59542;37.950;-122.338;2023-06-22T13:02:17;9.73;;;4.65;;
70008;SDS011;59542;37.950;-122.338;2023-06-22T13:04:43;9.80;;;4.05;;
70008;SDS011;59542;37.950;-122.338;2023-06-22T13:07:09;7.30;;;4.40;;
70008;SDS011;59542;37.950;-122.338;2023-06-22T13:09:36;7.85;;;4.38;;
70008;SDS011;59542;37.950;-122.338;2023-06-22T13:12:02;16.65;;;4.45;;
70008;SDS011;59542;37.950;-122.338;2023-06-22T13:14:29;9.32;;;3.65;;
70008;SDS011;59542;37.950;-122.338;2023-06-22T13:16:55;9.75;;;4.18;;
70008;SDS011;59542;37.950;-122.338;2023-06-22T13:19:21;10.13;;;3.97;;
70008;SDS011;59542;37.950;-122.338;2023-06-22T13:21:47;11.40;;;3.65;;
70008;SDS011;59542;37.950;-122.338;2023-06-22T13:24:14;8.48;;;3.50;;
70008;SDS011;59542;37.950;-122.338;2023-06-22T13:26:40;8.05;;;3.30;;
70008;SDS011;59542;37.950;-122.338;2023-06-22T13:29:06;12.13;;;4.43;;
70008;SDS011;59542;37.950;-122.338;2023-06-22T13:31:32;12.65;;;3.88;;
70008;SDS011;59542;37.950;-122.338;2023-06-22T13:33:58;15.32;;;3.70;;
70008;SDS011;59542;37.950;-122.338;2023-06-22T13:36:25;14.85;;;4.28;;
70008;SDS011;59542;37.950;-122.338;2023-06-22T13:38:51;10.05;;;3.72;;
70008;SDS011;59542;37.950;-122.338;2023-06-22T13:41:17;12.07;;;4.05;;
70008;SDS011;59542;37.950;-122.338;2023-06-22T13:43:43;12.93;;;4.18;;
70008;SDS011;59542;37.950;-122.338;2023-06-22T13:46:10;11.95;;;4.25;;
70008;SDS011;59542;37.950;-122.338;2023-06-22T13:48:36;7.53;;;3.70;;
70008;SDS011;59542;37.950;-122.338;2023-06-22T13:51:02;12.05;;;4.55;;
70008;SDS011;59542;37.950;-122.338;2023-06-22T13:53:28;13.15;;;4.38;;
70008;SDS011;59542;37.950;-122.338;2023-06-22T13:55:55;11.20;;;3.50;;
70008;SDS011;59542;37.950;-122.338;2023-06-22T13:58:22;7.53;;;3.83;;
70008;SDS011;59542;37.950;-122.338;2023-06-22T14:00:48;9.02;;;4.68;;
70008;SDS011;59542;37.950;-122.338;2023-06-22T14:03:14;11.60;;;4.63;;
70008;SDS011;59542;37.950;-122.338;2023-06-22T14:05:43;8.23;;;4.10;;
70008;SDS011;59542;37.950;-122.338;2023-06-22T14:08:10;9.13;;;3.28;;
70008;SDS011;59542;37.950;-122.338;2023-06-22T14:10:37;14.20;;;3.83;;